Terminal Aerodrome Forecast
Issued by NWS

Home | Current Version | Previous Version | Text Only | Print | Product List | Glossary On
Versions: 1 2 3 4 5 6 7 8 9 10 11 12 13 14 15
784
FTUS45 KABQ 212328
TAFLVS
TAF
KLVS 212328Z 2200/2224 09010KT P6SM BKN200
     FM220200 14010KT P6SM BKN200
     FM220400 18008KT P6SM BKN200
     FM221200 04006KT P6SM SCT200
     FM221800 16010KT P6SM FEW250=

USA.gov is the U.S. government's official web portal to all federal, state and local government web resources and services.